Time;durP1;ratioP1;P1;durP2;ratioP2;P2;SDS_P1;SDS_P2;PMS_P1;PMS_P2;Temp;Humidity;BMP_temperature;BMP_pressure;BME280_temperature;BME280_humidity;BME280_pressure;Samples;Min_cycle;Max_cycle;Signal;HPM_P1;HPM_P2
2023/07/15 00:02:15;;;;;;;10.43;6.70;;;19.50;99.90;;;;;;5052349;28;20037;-89
2023/07/15 00:04:41;;;;;;;8.40;7.60;;;19.50;99.90;;;;;;5034615;28;20043;-90
2023/07/15 00:07:07;;;;;;;12.98;7.07;;;19.50;99.90;;;;;;5051812;28;20045;-90
2023/07/15 00:09:34;;;;;;;9.77;6.05;;;19.50;99.90;;;;;;5039784;28;20521;-89
2023/07/15 00:12:00;;;;;;;8.38;6.60;;;19.40;99.90;;;;;;5042943;28;20060;-88
2023/07/15 00:14:28;;;;;;;9.05;6.47;;;19.40;99.90;;;;;;5034937;28;20128;-89
2023/07/15 00:16:54;;;;;;;7.97;5.80;;;19.40;99.90;;;;;;5034888;28;20047;-89
2023/07/15 00:19:20;;;;;;;9.63;6.28;;;19.30;99.90;;;;;;5034197;28;20033;-89
2023/07/15 00:21:46;;;;;;;10.98;6.55;;;19.30;99.90;;;;;;5037028;28;20041;-89
2023/07/15 00:24:12;;;;;;;9.73;6.60;;;19.30;99.90;;;;;;5037745;28;20093;-89
2023/07/15 00:26:39;;;;;;;10.38;6.78;;;19.20;99.90;;;;;;5055082;28;20064;-89
2023/07/15 00:29:05;;;;;;;9.98;6.75;;;19.20;99.90;;;;;;5037499;28;20512;-88
2023/07/15 00:31:33;;;;;;;8.63;6.78;;;19.20;99.90;;;;;;5038068;28;20040;-89
2023/07/15 00:33:59;;;;;;;11.02;6.88;;;19.10;99.90;;;;;;5050153;28;20475;-90
2023/07/15 00:36:26;;;;;;;8.05;5.93;;;19.20;99.90;;;;;;5054308;28;20039;-89
2023/07/15 00:38:53;;;;;;;10.68;6.95;;;19.10;99.90;;;;;;5053651;28;20044;-89
2023/07/15 00:41:23;;;;;;;11.90;5.72;;;19.10;99.90;;;;;;5038842;28;20044;-90
2023/07/15 00:44:14;;;;;;;16.42;6.90;;;19.10;99.90;;;;;;5049662;28;20067;-89
2023/07/15 00:46:55;;;;;;;8.65;5.60;;;19.00;99.90;;;;;;5037920;28;20094;-89
2023/07/15 00:49:23;;;;;;;12.60;6.25;;;19.10;99.90;;;;;;5066536;28;20044;-89
2023/07/15 00:51:57;;;;;;;9.23;5.68;;;19.00;99.90;;;;;;5057820;28;20049;-89
2023/07/15 00:54:23;;;;;;;7.90;6.22;;;19.00;99.90;;;;;;5037999;28;20064;-89
2023/07/15 00:56:49;;;;;;;8.48;5.38;;;19.10;99.90;;;;;;5038008;28;20491;-90
2023/07/15 00:59:16;;;;;;;9.55;6.68;;;19.10;99.90;;;;;;5054057;28;20040;-89
2023/07/15 01:01:43;;;;;;;7.10;5.82;;;19.10;99.90;;;;;;5054694;28;20621;-89
2023/07/15 01:04:09;;;;;;;7.35;5.78;;;19.10;99.90;;;;;;5039609;28;20170;-89
2023/07/15 01:06:35;;;;;;;9.70;6.93;;;19.20;99.90;;;;;;5056736;28;20044;-90
2023/07/15 01:09:09;;;;;;;10.95;6.15;;;19.20;99.90;;;;;;5073984;28;20097;-89
2023/07/15 01:11:35;;;;;;;9.38;5.68;;;19.20;99.90;;;;;;5074219;28;20038;-89
2023/07/15 01:14:01;;;;;;;7.80;6.10;;;19.30;99.90;;;;;;5041064;28;20122;-90
2023/07/15 01:16:28;;;;;;;9.43;7.05;;;19.30;99.90;;;;;;5037474;28;20119;-89
2023/07/15 01:18:54;;;;;;;8.90;6.30;;;19.30;99.90;;;;;;5054368;28;20041;-89
2023/07/15 01:21:20;;;;;;;8.40;6.45;;;19.40;99.90;;;;;;5037090;28;20036;-89
2023/07/15 01:23:47;;;;;;;8.25;7.28;;;19.40;99.90;;;;;;5054695;28;20043;-89
2023/07/15 01:26:13;;;;;;;13.27;8.35;;;19.50;99.90;;;;;;5058111;28;20527;-89
2023/07/15 01:28:39;;;;;;;10.15;6.35;;;19.50;99.90;;;;;;5056276;28;20044;-90
2023/07/15 01:31:04;;;;;;;9.48;7.05;;;19.60;99.90;;;;;;5046852;28;20044;-90
2023/07/15 01:33:31;;;;;;;11.73;6.57;;;19.60;99.90;;;;;;5036583;28;20100;-89
2023/07/15 01:35:56;;;;;;;8.15;6.65;;;19.60;99.90;;;;;;5036513;28;20083;-89
2023/07/15 01:38:22;;;;;;;11.55;6.95;;;19.60;99.90;;;;;;5054546;28;20080;-89
2023/07/15 01:40:48;;;;;;;9.35;7.75;;;19.70;99.90;;;;;;5057128;28;20032;-89
2023/07/15 01:43:13;;;;;;;10.50;5.45;;;19.70;99.90;;;;;;5057082;28;20044;-89
2023/07/15 01:45:39;;;;;;;9.57;7.03;;;19.70;99.90;;;;;;5073870;28;20039;-89
2023/07/15 01:48:07;;;;;;;9.60;6.55;;;19.80;99.90;;;;;;5072827;28;20062;-87
2023/07/15 01:50:33;;;;;;;8.68;6.90;;;19.80;99.90;;;;;;5045826;28;20494;-89
2023/07/15 01:52:59;;;;;;;10.07;6.30;;;19.80;99.90;;;;;;5036475;28;20123;-89
2023/07/15 01:55:25;;;;;;;9.00;5.20;;;19.90;99.90;;;;;;5036252;28;20104;-90
2023/07/15 01:57:50;;;;;;;8.38;5.53;;;19.90;99.90;;;;;;5036450;28;20253;-89
2023/07/15 02:00:16;;;;;;;6.78;5.95;;;19.90;99.90;;;;;;5037187;28;20118;-89
2023/07/15 02:02:43;;;;;;;10.68;6.43;;;20.00;99.90;;;;;;5036909;28;20482;-89
2023/07/15 02:05:09;;;;;;;8.10;6.30;;;20.00;99.90;;;;;;5041894;28;20056;-88
2023/07/15 02:07:35;;;;;;;7.32;6.63;;;20.00;99.90;;;;;;5066805;28;20103;-88
2023/07/15 02:10:01;;;;;;;8.15;5.60;;;20.10;99.90;;;;;;5049558;28;20048;-89
2023/07/15 02:12:28;;;;;;;7.05;4.53;;;20.10;99.90;;;;;;5046602;28;20068;-88
2023/07/15 02:14:54;;;;;;;9.65;3.85;;;20.10;99.90;;;;;;5033568;28;20044;-89
2023/07/15 02:17:22;;;;;;;6.38;3.60;;;20.10;99.90;;;;;;5063274;28;20047;-89
2023/07/15 02:19:49;;;;;;;8.07;4.13;;;20.10;99.90;;;;;;5040189;28;20029;-89
2023/07/15 02:22:15;;;;;;;10.38;5.00;;;20.20;99.90;;;;;;5065296;28;20036;-89
2023/07/15 02:24:40;;;;;;;9.27;3.97;;;20.20;99.90;;;;;;5032668;28;20041;-88
2023/07/15 02:27:06;;;;;;;8.63;5.07;;;20.20;99.90;;;;;;5048314;28;20045;-89
2023/07/15 02:29:32;;;;;;;5.38;3.38;;;20.20;99.90;;;;;;5048682;28;20427;-89
2023/07/15 02:31:57;;;;;;;9.98;5.15;;;20.30;99.90;;;;;;5036477;28;20050;-88
2023/07/15 02:34:23;;;;;;;10.00;3.92;;;20.30;99.90;;;;;;5061871;28;20116;-89
2023/07/15 02:36:49;;;;;;;5.20;3.53;;;20.30;99.90;;;;;;5049196;28;20033;-89
2023/07/15 02:39:14;;;;;;;5.75;3.38;;;20.20;99.90;;;;;;5031928;28;20045;-89
2023/07/15 02:41:40;;;;;;;8.07;4.03;;;20.20;99.90;;;;;;5032525;28;20040;-89
2023/07/15 02:44:06;;;;;;;7.70;4.07;;;20.20;99.90;;;;;;5048526;28;20040;-89
2023/07/15 02:46:31;;;;;;;5.65;3.53;;;20.20;99.90;;;;;;5062039;28;20124;-89
2023/07/15 02:48:57;;;;;;;6.03;2.95;;;20.20;99.90;;;;;;5049629;28;20037;-89
2023/07/15 02:51:24;;;;;;;7.10;4.07;;;20.20;99.90;;;;;;5051692;28;20045;-89
2023/07/15 02:53:50;;;;;;;5.80;3.40;;;20.20;99.90;;;;;;5052119;28;20528;-89
2023/07/15 02:56:16;;;;;;;10.05;3.10;;;20.20;99.90;;;;;;5051742;28;20040;-89
2023/07/15 02:58:41;;;;;;;8.35;3.30;;;20.20;99.90;;;;;;5057648;28;20581;-89
2023/07/15 03:01:08;;;;;;;4.88;3.13;;;20.20;99.90;;;;;;5033190;28;20052;-88
2023/07/15 03:03:35;;;;;;;5.75;3.45;;;20.20;99.90;;;;;;5031397;28;20116;-89
2023/07/15 03:06:02;;;;;;;6.97;3.28;;;20.20;99.90;;;;;;5035157;28;20044;-88
2023/07/15 03:08:27;;;;;;;6.18;2.88;;;20.10;99.90;;;;;;5052063;28;20079;-90
2023/07/15 03:10:53;;;;;;;6.05;3.33;;;20.10;99.90;;;;;;5056325;28;20086;-89
2023/07/15 03:13:19;;;;;;;5.30;3.47;;;20.00;99.90;;;;;;5072757;28;20467;-88
2023/07/15 03:15:45;;;;;;;10.20;3.58;;;20.00;99.90;;;;;;5053874;28;20028;-89
2023/07/15 03:18:11;;;;;;;6.53;3.15;;;19.90;99.90;;;;;;5060336;28;20119;-88
2023/07/15 03:20:36;;;;;;;8.80;4.15;;;19.80;99.90;;;;;;5051714;28;20052;-89
2023/07/15 03:23:03;;;;;;;8.30;7.20;;;19.80;99.90;;;;;;5051526;28;20041;-89
2023/07/15 03:25:29;;;;;;;7.93;4.82;;;19.70;99.90;;;;;;5034345;28;20040;-89
2023/07/15 03:27:55;;;;;;;6.30;4.50;;;19.60;99.90;;;;;;5034649;28;20048;-89
2023/07/15 03:30:21;;;;;;;10.32;8.05;;;19.60;99.90;;;;;;5051525;28;20029;-89
2023/07/15 03:32:47;;;;;;;9.73;8.30;;;19.50;99.90;;;;;;5045603;28;20493;-89
2023/07/15 03:35:13;;;;;;;7.10;6.00;;;19.50;99.90;;;;;;5054747;28;20047;-89
2023/07/15 03:37:41;;;;;;;8.93;4.93;;;19.50;99.90;;;;;;5054706;28;20036;-89
2023/07/15 03:40:08;;;;;;;9.23;8.05;;;19.50;99.90;;;;;;5055152;28;20044;-89
2023/07/15 03:42:35;;;;;;;7.85;6.07;;;19.40;99.90;;;;;;5071385;28;20044;-89
2023/07/15 03:45:01;;;;;;;7.50;6.55;;;19.40;99.90;;;;;;5054102;28;20134;-89
2023/07/15 03:47:27;;;;;;;9.30;7.57;;;19.40;99.90;;;;;;5054512;28;20044;-89
2023/07/15 03:49:53;;;;;;;8.27;5.88;;;19.30;99.90;;;;;;5052723;28;20482;-89
2023/07/15 03:52:18;;;;;;;6.78;6.15;;;19.20;99.90;;;;;;5034882;28;20041;-89
2023/07/15 03:54:44;;;;;;;11.63;8.10;;;19.20;99.90;;;;;;5051268;28;20083;-90
2023/07/15 03:57:11;;;;;;;10.45;7.30;;;19.20;99.90;;;;;;5037592;28;20032;-89
2023/07/15 03:59:37;;;;;;;8.02;6.28;;;19.10;99.90;;;;;;5055566;28;20490;-89
2023/07/15 04:02:03;;;;;;;9.82;8.85;;;19.10;99.90;;;;;;5058266;28;20573;-89
2023/07/15 04:04:29;;;;;;;11.93;7.40;;;19.10;99.90;;;;;;5059036;28;20036;-89
2023/07/15 04:06:55;;;;;;;7.90;6.82;;;19.00;99.90;;;;;;5071785;28;20048;-90
2023/07/15 04:09:21;;;;;;;8.95;7.38;;;19.00;99.90;;;;;;5072385;28;20045;-90
2023/07/15 04:11:47;;;;;;;8.68;7.78;;;19.00;99.90;;;;;;5055789;28;20044;-88
2023/07/15 04:14:13;;;;;;;8.45;7.60;;;19.00;99.90;;;;;;5049312;28;20036;-90
2023/07/15 04:16:41;;;;;;;9.60;8.70;;;18.90;99.90;;;;;;5035681;28;20479;-89
2023/07/15 04:19:07;;;;;;;9.60;7.30;;;18.90;99.90;;;;;;5051361;28;20045;-89
2023/07/15 04:21:32;;;;;;;8.45;7.55;;;18.90;99.90;;;;;;5035037;28;20467;-90
2023/07/15 04:23:58;;;;;;;7.15;6.45;;;18.90;99.90;;;;;;5035517;28;20071;-89
2023/07/15 04:26:26;;;;;;;7.70;7.00;;;18.90;99.90;;;;;;5051784;28;20048;-89
2023/07/15 04:28:54;;;;;;;9.25;7.45;;;18.90;99.90;;;;;;5063437;28;20037;-89
2023/07/15 04:31:20;;;;;;;9.65;8.75;;;18.90;99.90;;;;;;5046754;28;20098;-89
2023/07/15 04:33:48;;;;;;;7.03;6.32;;;18.90;99.90;;;;;;5041787;28;20479;-89
2023/07/15 04:36:15;;;;;;;7.50;6.50;;;18.90;99.90;;;;;;5071961;28;20094;-89
2023/07/15 04:38:41;;;;;;;9.50;4.85;;;19.10;99.90;;;;;;5071081;28;20067;-90
2023/07/15 04:41:06;;;;;;;7.60;6.45;;;18.90;99.90;;;;;;5071719;28;20114;-89
2023/07/15 04:43:32;;;;;;;5.80;5.00;;;18.90;99.90;;;;;;5054507;28;20040;-89
2023/07/15 04:45:59;;;;;;;6.15;5.05;;;19.00;99.90;;;;;;5071225;28;20105;-89
2023/07/15 04:48:25;;;;;;;8.48;5.47;;;19.00;99.90;;;;;;5049028;28;20123;-89
2023/07/15 04:50:51;;;;;;;7.43;5.80;;;19.00;99.90;;;;;;5034831;28;20128;-89
2023/07/15 04:53:16;;;;;;;7.95;5.68;;;19.10;99.90;;;;;;5034641;28;20041;-89
2023/07/15 04:55:43;;;;;;;6.30;5.30;;;19.10;99.90;;;;;;5035032;28;20033;-89
2023/07/15 04:58:09;;;;;;;9.18;7.57;;;19.30;99.90;;;;;;5034223;28;20045;-89
2023/07/15 05:00:36;;;;;;;5.95;5.32;;;19.60;99.90;;;;;;5047370;28;20047;-90
2023/07/15 05:03:05;;;;;;;6.85;6.15;;;19.50;99.90;;;;;;5035301;28;20033;-89
2023/07/15 05:05:31;;;;;;;9.13;6.75;;;19.60;99.90;;;;;;5054374;28;20127;-92
2023/07/15 05:08:07;;;;;;;6.20;5.43;;;19.70;99.90;;;;;;5070167;28;20051;-89
2023/07/15 05:10:33;;;;;;;9.80;7.40;;;19.70;99.90;;;;;;5053332;28;20040;-90
2023/07/15 05:12:59;;;;;;;11.57;6.88;;;19.80;99.90;;;;;;5058621;28;20395;-90
2023/07/15 05:15:24;;;;;;;8.75;7.03;;;19.90;99.90;;;;;;5058595;28;20696;-89
2023/07/15 05:17:50;;;;;;;7.72;6.30;;;20.00;99.90;;;;;;5074735;28;20485;-90
2023/07/15 05:20:19;;;;;;;8.50;6.05;;;20.00;99.90;;;;;;5058136;28;20110;-90
2023/07/15 05:22:44;;;;;;;8.75;7.97;;;20.10;99.90;;;;;;5074551;28;20447;-87
2023/07/15 05:25:12;;;;;;;5.28;3.85;;;20.80;99.90;;;;;;5074960;28;20070;-90
2023/07/15 05:27:38;;;;;;;6.05;3.00;;;22.20;99.90;;;;;;5054928;28;20043;-87
2023/07/15 05:30:04;;;;;;;8.45;3.88;;;23.60;99.90;;;;;;5054351;28;20397;-88
2023/07/15 05:32:30;;;;;;;8.32;5.50;;;24.80;99.90;;;;;;5037226;28;20092;-87
2023/07/15 05:34:56;;;;;;;9.25;4.82;;;25.80;99.70;;;;;;5038789;28;20083;-89
2023/07/15 05:37:21;;;;;;;10.38;8.82;;;26.70;99.30;;;;;;5037533;28;20178;-86
2023/07/15 05:39:47;;;;;;;19.88;18.58;;;27.20;97.60;;;;;;5053061;28;20517;-86
2023/07/15 05:42:13;;;;;;;27.15;25.23;;;28.10;97.90;;;;;;5053468;28;20047;-86
2023/07/15 05:44:38;;;;;;;39.97;37.53;;;28.70;97.60;;;;;;5056548;28;20489;-88
2023/07/15 05:47:05;;;;;;;83.18;78.35;;;29.10;96.40;;;;;;5072971;28;20036;-88
2023/07/15 05:49:31;;;;;;;129.85;122.00;;;29.70;96.00;;;;;;5090778;28;20043;-88
2023/07/15 05:51:56;;;;;;;364.23;338.98;;;30.30;95.50;;;;;;5072744;28;20044;-87
2023/07/15 05:54:22;;;;;;;652.53;601.72;;;30.70;94.90;;;;;;5072625;28;20070;-86
2023/07/15 05:56:48;;;;;;;851.20;780.65;;;30.80;93.90;;;;;;5072858;28;20032;-87
2023/07/15 05:59:13;;;;;;;997.65;901.10;;;31.30;94.50;;;;;;5091150;28;20040;-87
2023/07/15 06:01:41;;;;;;;1051.95;945.00;;;31.70;93.60;;;;;;5090393;28;20082;-87
2023/07/15 06:04:08;;;;;;;1041.35;936.72;;;31.90;93.50;;;;;;5054073;28;20044;-86
2023/07/15 06:06:34;;;;;;;1203.75;999.10;;;32.30;93.30;;;;;;5032490;28;20124;-88
2023/07/15 06:09:00;;;;;;;1217.63;999.90;;;32.20;91.40;;;;;;5050296;28;20041;-87
2023/07/15 06:11:26;;;;;;;1146.45;994.90;;;32.70;92.50;;;;;;5049727;28;20036;-87
2023/07/15 06:13:51;;;;;;;1171.88;999.90;;;32.90;92.30;;;;;;5031817;28;20436;-86
2023/07/15 06:16:17;;;;;;;1255.47;999.90;;;32.60;92.00;;;;;;5049513;28;20033;-87
2023/07/15 06:18:42;;;;;;;1373.13;999.90;;;32.70;91.90;;;;;;5031549;28;20120;-87
2023/07/15 06:21:12;;;;;;;1523.50;999.90;;;33.00;92.30;;;;;;5032521;28;20117;-89
2023/07/15 06:23:38;;;;;;;1361.10;999.90;;;33.30;92.20;;;;;;5060036;28;20049;-89
2023/07/15 06:26:03;;;;;;;1502.57;999.90;;;33.60;91.50;;;;;;5051354;28;20510;-90
2023/07/15 06:28:29;;;;;;;1620.25;999.90;;;34.00;91.30;;;;;;5032131;28;20128;-89
2023/07/15 06:31:02;;;;;;;1545.95;999.90;;;33.70;90.90;;;;;;5032241;28;20045;-89
2023/07/15 06:33:28;;;;;;;1760.38;999.90;;;32.80;91.10;;;;;;5031896;28;20033;-88
2023/07/15 06:35:54;;;;;;;1650.93;999.90;;;32.10;92.00;;;;;;5031783;28;20033;-89
2023/07/15 06:38:20;;;;;;;1756.05;999.90;;;32.20;92.40;;;;;;5031660;28;20048;-88
2023/07/15 06:40:45;;;;;;;1531.65;999.90;;;32.50;92.00;;;;;;5047745;28;20438;-88
2023/07/15 06:43:11;;;;;;;1494.30;999.90;;;32.90;92.00;;;;;;5031838;28;20040;-90
2023/07/15 06:45:37;;;;;;;1623.88;999.90;;;33.40;92.00;;;;;;5031713;28;20037;-89
2023/07/15 06:48:03;;;;;;;1747.85;999.90;;;33.60;91.70;;;;;;5056330;28;20040;-89
2023/07/15 06:50:29;;;;;;;1794.85;999.90;;;33.70;92.10;;;;;;5051592;28;20060;-87
2023/07/15 06:52:55;;;;;;;1908.85;999.90;;;33.70;92.00;;;;;;5067414;28;20047;-87
2023/07/15 06:55:21;;;;;;;1637.93;999.90;;;33.80;92.00;;;;;;5047635;28;20036;-89
2023/07/15 06:57:47;;;;;;;1635.15;999.90;;;34.00;91.70;;;;;;5054662;28;20499;-89
2023/07/15 07:00:13;;;;;;;1636.20;999.90;;;34.40;91.80;;;;;;5059255;28;20475;-91
2023/07/15 07:02:39;;;;;;;1775.70;999.90;;;34.50;91.30;;;;;;5046506;28;20048;-87
2023/07/15 07:05:05;;;;;;;1981.53;999.90;;;34.60;91.40;;;;;;5050522;28;20101;-88
2023/07/15 07:07:30;;;;;;;1999.90;999.90;;;34.40;90.60;;;;;;5032912;28;20076;-89
2023/07/15 07:09:56;;;;;;;1999.90;999.90;;;33.30;91.60;;;;;;5050901;28;20036;-90
2023/07/15 07:12:22;;;;;;;1972.25;999.90;;;33.40;92.40;;;;;;5034729;28;20040;-89
2023/07/15 07:14:48;;;;;;;1999.90;999.90;;;33.70;92.10;;;;;;5051889;28;20041;-92
2023/07/15 07:17:17;;;;;;;1892.38;999.90;;;33.70;91.50;;;;;;5038784;28;20032;-89
2023/07/15 07:19:43;;;;;;;1999.90;999.90;;;33.70;91.90;;;;;;5051565;28;20032;-89
2023/07/15 07:22:08;;;;;;;1937.38;999.90;;;33.60;92.00;;;;;;5057379;28;20071;-89
2023/07/15 07:24:34;;;;;;;1999.90;999.90;;;33.90;91.90;;;;;;5048748;28;20082;-90
2023/07/15 07:26:59;;;;;;;1999.90;999.90;;;33.50;91.10;;;;;;5039578;28;20028;-90
2023/07/15 07:29:25;;;;;;;1999.90;999.90;;;32.50;91.90;;;;;;5034873;28;20085;-91
2023/07/15 07:31:52;;;;;;;1746.65;999.90;;;32.20;92.40;;;;;;5033553;28;20033;-87
2023/07/15 07:34:18;;;;;;;1938.90;999.90;;;32.60;92.50;;;;;;5033817;28;20054;-87
2023/07/15 07:36:44;;;;;;;1733.15;999.90;;;32.70;92.20;;;;;;5050522;28;20497;-89
2023/07/15 07:39:10;;;;;;;1851.40;999.90;;;32.80;92.20;;;;;;5051431;28;20192;-90
2023/07/15 07:41:36;;;;;;;1863.13;999.90;;;32.80;92.10;;;;;;5051240;28;20043;-90
2023/07/15 07:44:02;;;;;;;1813.68;999.90;;;32.80;92.30;;;;;;5042734;28;20036;-90
2023/07/15 07:46:27;;;;;;;1984.72;999.90;;;33.10;92.30;;;;;;5062226;28;20032;-91
2023/07/15 07:48:53;;;;;;;1733.68;999.90;;;33.10;91.90;;;;;;5061391;28;20062;-89
2023/07/15 07:51:19;;;;;;;1835.80;999.90;;;33.40;92.30;;;;;;5056393;28;20032;-95
2023/07/15 07:53:44;;;;;;;1751.60;999.90;;;33.80;92.40;;;;;;5060619;28;20037;-89
2023/07/15 07:56:11;;;;;;;1980.80;999.90;;;34.20;91.90;;;;;;5056803;28;20555;-88
2023/07/15 07:58:38;;;;;;;1807.50;999.90;;;34.20;92.00;;;;;;5068215;28;20083;-89
2023/07/15 08:01:04;;;;;;;1974.65;999.90;;;34.30;92.10;;;;;;5051238;28;20048;-85
2023/07/15 08:03:29;;;;;;;1999.90;999.90;;;34.70;91.90;;;;;;5068499;28;20043;-90
2023/07/15 08:05:57;;;;;;;1998.03;999.90;;;35.00;91.70;;;;;;5033526;28;20075;-89
2023/07/15 08:08:23;;;;;;;1999.90;999.90;;;34.90;91.60;;;;;;5033757;28;20279;-89
2023/07/15 08:10:48;;;;;;;1993.97;999.90;;;34.60;91.20;;;;;;5033987;28;20467;-90
2023/07/15 08:13:14;;;;;;;1999.90;999.90;;;34.60;91.10;;;;;;5048428;28;20044;-89
2023/07/15 08:15:40;;;;;;;1999.90;999.90;;;34.00;91.80;;;;;;5070815;28;20047;-89
2023/07/15 08:18:06;;;;;;;1999.90;999.90;;;33.30;91.70;;;;;;5054945;28;20097;-89
2023/07/15 08:20:32;;;;;;;1999.90;999.90;;;32.20;92.20;;;;;;5054280;28;20402;-89
2023/07/15 08:22:59;;;;;;;1889.88;999.90;;;31.30;93.10;;;;;;5054245;28;20036;-90
2023/07/15 08:25:25;;;;;;;1591.60;999.90;;;30.90;93.20;;;;;;5053950;28;20036;-89
2023/07/15 08:27:51;;;;;;;1636.05;999.90;;;30.70;93.40;;;;;;5040939;28;20067;-89
2023/07/15 08:30:18;;;;;;;1280.57;990.03;;;30.40;93.40;;;;;;5051036;28;20064;-90
2023/07/15 08:32:44;;;;;;;1108.53;966.33;;;30.30;93.30;;;;;;5068578;28;20090;-89
2023/07/15 08:35:10;;;;;;;1028.97;918.10;;;30.00;93.90;;;;;;5034490;28;20123;-89
2023/07/15 08:37:35;;;;;;;1187.80;997.65;;;30.00;94.30;;;;;;5050411;28;20044;-89
2023/07/15 08:40:02;;;;;;;1136.03;971.25;;;30.60;94.30;;;;;;5033900;28;20753;-88
2023/07/15 08:42:30;;;;;;;1313.40;999.90;;;30.90;94.10;;;;;;5062307;28;20442;-89
2023/07/15 08:44:56;;;;;;;1359.53;999.90;;;31.50;94.10;;;;;;5057602;28;20032;-89
2023/07/15 08:47:23;;;;;;;1267.75;999.90;;;31.30;93.80;;;;;;5057558;28;20174;-89
2023/07/15 08:49:52;;;;;;;1296.55;999.90;;;30.60;94.00;;;;;;5057528;28;20040;-89
2023/07/15 08:52:19;;;;;;;1154.82;971.70;;;30.40;93.90;;;;;;5056771;28;20063;-89
2023/07/15 08:54:49;;;;;;;1086.43;955.90;;;30.30;94.30;;;;;;5074150;28;20465;-89
2023/07/15 08:57:17;;;;;;;1179.43;981.97;;;30.00;94.80;;;;;;5056862;28;20036;-89
2023/07/15 08:59:53;;;;;;;1408.75;999.90;;;30.50;94.60;;;;;;5074073;28;20426;-89
2023/07/15 09:02:19;;;;;;;1318.10;999.90;;;30.80;94.70;;;;;;5057488;28;20311;-89
2023/07/15 09:04:44;;;;;;;1540.35;999.90;;;31.10;94.80;;;;;;5072857;28;20028;-89
2023/07/15 09:07:10;;;;;;;1656.93;999.90;;;31.30;94.20;;;;;;5073924;28;20468;-89
2023/07/15 09:09:38;;;;;;;1552.38;999.90;;;31.50;94.40;;;;;;5050476;28;20037;-89
2023/07/15 09:12:06;;;;;;;1676.10;999.90;;;31.30;94.30;;;;;;5037075;28;20029;-90
2023/07/15 09:14:37;;;;;;;1581.40;999.90;;;30.90;94.40;;;;;;5037453;28;20048;-89
2023/07/15 09:17:03;;;;;;;1627.47;999.90;;;31.00;94.90;;;;;;5037182;28;20122;-90
2023/07/15 09:19:33;;;;;;;1545.88;999.90;;;30.90;94.40;;;;;;5053341;28;20111;-89
2023/07/15 09:22:08;;;;;;;1772.60;999.90;;;31.20;95.10;;;;;;5036990;28;20094;-89
2023/07/15 09:24:37;;;;;;;1819.65;999.90;;;31.20;94.30;;;;;;5061636;28;20036;-89
2023/07/15 09:27:03;;;;;;;1769.05;999.90;;;31.00;94.40;;;;;;5057004;28;20201;-89
2023/07/15 09:29:29;;;;;;;1766.20;999.90;;;30.80;94.40;;;;;;5056496;28;20032;-89
2023/07/15 09:31:55;;;;;;;1623.93;999.90;;;30.60;94.70;;;;;;5056499;28;20032;-89
2023/07/15 09:34:22;;;;;;;1633.15;999.90;;;30.70;94.60;;;;;;5090918;28;20089;-89
2023/07/15 09:36:49;;;;;;;1575.68;999.90;;;30.60;94.70;;;;;;5056713;28;20040;-89
2023/07/15 09:39:19;;;;;;;1665.53;999.90;;;30.40;95.00;;;;;;5082999;28;20043;-88
2023/07/15 09:42:02;;;;;;;1630.63;999.90;;;30.70;95.20;;;;;;5053145;28;20064;-89
2023/07/15 09:44:35;;;;;;;1584.53;999.90;;;31.00;95.10;;;;;;5053038;28;20055;-89
2023/07/15 09:47:03;;;;;;;1579.57;999.90;;;30.90;95.30;;;;;;5053555;28;20037;-89
2023/07/15 09:49:29;;;;;;;1436.72;999.90;;;31.50;95.40;;;;;;5035962;28;20299;-89
2023/07/15 09:51:56;;;;;;;1425.80;999.90;;;31.70;94.50;;;;;;5053409;28;20313;-89
2023/07/15 09:54:25;;;;;;;1486.93;999.90;;;31.90;94.70;;;;;;5063204;28;20068;-89
2023/07/15 09:57:09;;;;;;;1774.97;999.90;;;32.50;94.60;;;;;;5072945;28;20554;-90
2023/07/15 09:59:44;;;;;;;1567.47;999.90;;;32.20;93.80;;;;;;5056175;28;20382;-89
2023/07/15 10:02:18;;;;;;;1814.38;999.90;;;32.10;94.00;;;;;;5073107;28;20044;-90
2023/07/15 10:04:45;;;;;;;1610.45;999.90;;;31.50;93.40;;;;;;5072674;28;20047;-89
2023/07/15 10:07:11;;;;;;;1745.88;999.90;;;31.50;94.50;;;;;;5055958;28;20043;-89
2023/07/15 10:09:38;;;;;;;1612.85;999.90;;;31.80;94.80;;;;;;5057931;28;20035;-89
2023/07/15 10:12:04;;;;;;;1819.00;999.90;;;32.20;94.70;;;;;;5036037;28;20028;-89
2023/07/15 10:14:31;;;;;;;1881.20;999.90;;;32.40;94.20;;;;;;5060129;28;20115;-88
2023/07/15 10:17:10;;;;;;;1999.90;999.90;;;32.60;94.30;;;;;;5072443;28;20040;-89
2023/07/15 16:20:25;;;;;;;1999.90;999.90;;;29.20;94.40;;;;;;5124646;27;20904;-84
2023/07/15 16:22:50;;;;;;;1999.90;999.90;;;30.00;94.50;;;;;;5124572;27;20067;-84
2023/07/15 16:25:16;;;;;;;1683.15;999.90;;;29.80;93.90;;;;;;5124572;27;20104;-86
2023/07/15 16:27:42;;;;;;;1763.80;999.90;;;29.50;94.00;;;;;;5110602;28;20043;-84
2023/07/15 16:30:08;;;;;;;1724.07;999.90;;;29.30;94.00;;;;;;5108709;28;20039;-88
2023/07/15 16:32:34;;;;;;;1669.40;999.90;;;29.10;94.30;;;;;;5126017;28;20490;-85
2023/07/15 16:35:01;;;;;;;1343.10;999.90;;;28.90;94.40;;;;;;5130833;27;20134;-86
2023/07/15 16:37:30;;;;;;;1469.75;999.90;;;28.60;94.90;;;;;;5125742;28;20057;-88
2023/07/15 16:39:55;;;;;;;1363.43;999.90;;;28.50;94.90;;;;;;5126291;27;20591;-87
2023/07/15 16:42:21;;;;;;;1189.95;999.90;;;28.20;95.40;;;;;;5120129;28;20092;-87
2023/07/15 16:44:47;;;;;;;1142.05;996.65;;;28.10;95.30;;;;;;5126859;28;20477;-88
2023/07/15 16:47:13;;;;;;;1152.28;998.53;;;28.10;95.30;;;;;;5126454;28;20050;-88
2023/07/15 16:49:40;;;;;;;1088.70;969.53;;;28.00;95.10;;;;;;5126513;27;20035;-88
2023/07/15 16:52:06;;;;;;;1139.38;989.05;;;27.90;94.90;;;;;;5126277;28;20044;-88
2023/07/15 16:54:32;;;;;;;1052.20;945.15;;;27.90;94.90;;;;;;5126621;27;20422;-87
2023/07/15 16:57:01;;;;;;;1164.53;992.40;;;27.90;95.00;;;;;;5108792;28;20093;-85
2023/07/15 16:59:27;;;;;;;803.72;723.33;;;27.80;95.10;;;;;;5112576;27;20080;-85
2023/07/15 17:01:52;;;;;;;67.70;62.78;;;27.30;97.50;;;;;;5111787;28;20517;-84
2023/07/15 17:04:18;;;;;;;52.03;48.00;;;26.30;99.90;;;;;;5106843;28;20477;-85
2023/07/15 17:06:44;;;;;;;42.17;39.08;;;25.40;99.90;;;;;;5114087;28;20519;-82
2023/07/15 17:09:13;;;;;;;27.40;25.35;;;24.60;99.90;;;;;;5105781;28;20040;-82
2023/07/15 17:11:38;;;;;;;13.15;11.82;;;24.00;99.90;;;;;;5104558;28;20039;-83
2023/07/15 17:14:04;;;;;;;11.30;10.20;;;23.70;99.90;;;;;;5110446;28;20142;-82
2023/07/15 17:16:29;;;;;;;11.90;10.90;;;23.30;99.90;;;;;;5102106;28;20112;-84
2023/07/15 17:18:55;;;;;;;9.20;8.25;;;23.10;99.90;;;;;;5091326;28;20058;-81
2023/07/15 17:21:21;;;;;;;7.85;4.95;;;22.90;99.90;;;;;;5090557;28;20115;-82
2023/07/15 17:23:46;;;;;;;7.88;7.13;;;22.80;99.90;;;;;;5091809;28;20070;-83
2023/07/15 17:26:12;;;;;;;16.45;15.05;;;22.80;99.90;;;;;;5091335;28;20469;-83
2023/07/15 17:28:38;;;;;;;7.60;4.68;;;22.70;99.90;;;;;;5099970;28;20032;-83
2023/07/15 17:31:04;;;;;;;6.93;4.70;;;22.70;99.90;;;;;;5108066;28;20035;-82
2023/07/15 17:33:29;;;;;;;6.45;3.60;;;22.80;99.90;;;;;;5108590;28;20050;-82
2023/07/15 17:35:55;;;;;;;5.65;3.65;;;22.80;99.90;;;;;;5108257;28;20028;-83
2023/07/15 17:38:21;;;;;;;9.00;3.92;;;22.80;99.90;;;;;;5108334;28;20529;-80
2023/07/15 17:40:48;;;;;;;6.07;4.13;;;23.00;99.90;;;;;;5107427;28;20040;-82
2023/07/15 17:43:14;;;;;;;6.85;3.70;;;22.90;99.90;;;;;;5108491;28;20081;-83
2023/07/15 17:45:39;;;;;;;5.85;3.65;;;22.80;99.90;;;;;;5092225;28;20093;-83
2023/07/15 17:48:06;;;;;;;7.43;4.28;;;22.80;99.90;;;;;;5092010;28;20480;-83
2023/07/15 17:50:33;;;;;;;7.78;3.38;;;22.60;99.90;;;;;;5108596;28;20044;-84
2023/07/15 17:52:59;;;;;;;7.00;3.35;;;22.60;99.90;;;;;;5109157;28;20043;-84
2023/07/15 17:55:25;;;;;;;9.30;4.72;;;22.40;99.90;;;;;;5108759;28;20063;-85
2023/07/15 17:57:50;;;;;;;7.57;3.85;;;22.40;99.90;;;;;;5092367;28;20047;-84
2023/07/15 18:00:19;;;;;;;9.05;3.45;;;22.40;99.90;;;;;;5108988;28;20046;-84
2023/07/15 18:02:49;;;;;;;6.68;3.42;;;22.40;99.90;;;;;;5110937;28;20075;-85
2023/07/15 18:05:17;;;;;;;7.50;3.50;;;22.40;99.90;;;;;;5108987;28;20042;-84
2023/07/15 18:07:43;;;;;;;7.25;3.15;;;22.40;99.90;;;;;;5109482;28;20373;-83
2023/07/15 18:10:09;;;;;;;8.13;3.50;;;22.30;99.90;;;;;;5108816;28;20213;-83
2023/07/15 18:12:35;;;;;;;9.45;3.60;;;22.30;99.90;;;;;;5111113;28;20055;-84
2023/07/15 18:15:01;;;;;;;6.07;3.55;;;22.30;99.90;;;;;;5111108;28;20039;-82
2023/07/15 18:17:26;;;;;;;6.63;4.32;;;22.20;99.90;;;;;;5091284;28;20031;-83
2023/07/15 18:19:52;;;;;;;5.78;3.33;;;22.20;99.90;;;;;;5090885;28;20055;-83
2023/07/15 18:22:21;;;;;;;8.00;6.05;;;22.00;99.90;;;;;;5109665;28;20485;-82
2023/07/15 18:24:47;;;;;;;7.03;4.20;;;22.00;99.90;;;;;;5108010;28;20105;-82